Time;durP1;ratioP1;P1;durP2;ratioP2;P2;SDS_P1;SDS_P2;PMS_P1;PMS_P2;Temp;Humidity;BMP_temperature;BMP_pressure;BME280_temperature;BME280_humidity;BME280_pressure;Samples;Min_cycle;Max_cycle;Signal;HPM_P1;HPM_P2
2022/01/17 00:02:19;;;;;;;4.40;1.77;;;6.20;99.90;;;;;;4906484;29;20071;-81
2022/01/17 00:04:47;;;;;;;0.52;0.52;;;6.20;99.90;;;;;;4907333;29;20571;-81
2022/01/17 00:07:13;;;;;;;6.68;1.60;;;6.10;99.90;;;;;;4905582;29;20036;-81
2022/01/17 00:09:39;;;;;;;5.60;1.58;;;6.10;99.90;;;;;;4906605;29;20044;-81
2022/01/17 00:12:05;;;;;;;1.15;1.05;;;6.10;99.90;;;;;;4906944;29;20048;-81
2022/01/17 00:14:38;;;;;;;9.85;1.90;;;6.10;99.90;;;;;;4905367;29;20547;-81
2022/01/17 00:17:23;;;;;;;1.15;1.05;;;6.00;99.90;;;;;;4906716;29;20723;-81
2022/01/17 00:19:53;;;;;;;2.45;1.52;;;6.00;99.90;;;;;;4905192;29;20511;-82
2022/01/17 00:22:20;;;;;;;1.65;0.75;;;6.00;99.90;;;;;;4906729;29;20131;-81
2022/01/17 00:24:46;;;;;;;13.45;1.05;;;5.90;99.90;;;;;;4906180;29;20117;-81
2022/01/17 00:27:13;;;;;;;10.10;1.90;;;5.90;99.90;;;;;;4907004;29;20551;-81
2022/01/17 00:29:39;;;;;;;5.65;2.33;;;5.90;99.90;;;;;;4905467;29;20059;-81
2022/01/17 00:32:05;;;;;;;0.75;0.68;;;5.90;99.90;;;;;;4906175;29;20040;-81
2022/01/17 00:34:30;;;;;;;2.85;0.70;;;5.90;99.90;;;;;;4906814;29;20055;-81
2022/01/17 00:36:56;;;;;;;5.68;1.40;;;5.90;99.90;;;;;;4906153;29;20043;-82
2022/01/17 00:39:22;;;;;;;1.92;1.42;;;5.90;99.90;;;;;;4920187;29;20079;-81
2022/01/17 00:41:48;;;;;;;6.88;2.30;;;5.90;99.90;;;;;;4905077;29;20044;-81
2022/01/17 00:44:16;;;;;;;2.42;1.23;;;5.90;99.90;;;;;;4904081;29;20115;-82
2022/01/17 00:46:41;;;;;;;15.50;1.55;;;5.90;99.90;;;;;;4905649;29;20464;-81
2022/01/17 00:49:07;;;;;;;18.52;1.75;;;5.90;99.90;;;;;;4904397;29;20131;-81
2022/01/17 00:51:33;;;;;;;5.38;1.58;;;5.80;99.90;;;;;;4919984;29;20047;-81
2022/01/17 00:53:58;;;;;;;3.17;1.42;;;5.80;99.90;;;;;;4905621;29;20044;-82
2022/01/17 00:56:24;;;;;;;1.17;0.85;;;5.80;99.90;;;;;;4904318;29;20513;-81
2022/01/17 00:58:50;;;;;;;0.70;0.70;;;5.90;99.90;;;;;;4905123;29;20048;-81
2022/01/17 01:01:15;;;;;;;3.97;0.77;;;5.80;99.90;;;;;;4904941;29;20040;-81
2022/01/17 01:03:42;;;;;;;7.13;1.90;;;5.80;99.90;;;;;;4905495;29;20072;-82
2022/01/17 01:06:08;;;;;;;12.32;1.55;;;5.80;99.90;;;;;;4906321;29;20080;-81
2022/01/17 01:08:33;;;;;;;1.55;1.13;;;5.90;99.90;;;;;;4904570;29;20102;-82
2022/01/17 01:10:59;;;;;;;0.75;0.75;;;5.80;99.90;;;;;;4905345;29;20036;-81
2022/01/17 01:13:28;;;;;;;10.10;2.50;;;5.90;99.90;;;;;;4903777;29;20052;-82
2022/01/17 01:21:42;;;;;;;3.58;1.27;;;5.80;99.90;;;;;;4904158;29;20080;-82
2022/01/17 01:29:18;;;;;;;3.53;1.33;;;5.80;99.90;;;;;;4904038;29;20071;-82
2022/01/17 01:31:52;;;;;;;1.70;1.35;;;5.80;99.90;;;;;;4905753;29;20040;-81
2022/01/17 01:34:20;;;;;;;9.88;1.67;;;5.80;99.90;;;;;;4905170;29;20044;-82
2022/01/17 01:36:48;;;;;;;2.05;1.05;;;5.80;99.90;;;;;;4905940;29;20044;-81
2022/01/17 01:39:21;;;;;;;6.65;1.50;;;5.70;99.90;;;;;;4904174;29;20052;-81
2022/01/17 01:41:46;;;;;;;6.80;2.28;;;5.70;99.90;;;;;;4919829;29;20054;-81
2022/01/17 01:44:22;;;;;;;0.68;0.68;;;5.70;99.90;;;;;;4904657;29;20056;-81
2022/01/17 01:46:50;;;;;;;3.38;0.90;;;5.70;99.90;;;;;;4919256;29;20059;-81
2022/01/17 01:49:17;;;;;;;14.45;1.05;;;5.70;99.90;;;;;;4905198;29;20101;-82
2022/01/17 01:51:43;;;;;;;0.50;0.50;;;5.70;99.90;;;;;;4904826;29;20384;-81
2022/01/17 01:54:08;;;;;;;0.68;0.50;;;5.70;99.90;;;;;;4904684;29;20123;-81
2022/01/17 01:56:39;;;;;;;4.35;0.95;;;5.70;99.90;;;;;;4905053;29;20095;-82
2022/01/17 01:59:05;;;;;;;6.30;0.75;;;5.60;99.90;;;;;;4902774;29;20044;-81
2022/01/17 02:01:31;;;;;;;17.52;1.75;;;5.60;99.90;;;;;;4904542;29;20047;-81
2022/01/17 02:03:57;;;;;;;1.38;1.15;;;5.60;99.90;;;;;;4904048;29;20048;-81
2022/01/17 02:06:23;;;;;;;3.20;1.75;;;5.60;99.90;;;;;;4924813;23;20506;-82
2022/01/17 02:08:49;;;;;;;1.45;1.27;;;5.60;99.90;;;;;;4923907;29;20047;-82
2022/01/17 02:11:15;;;;;;;4.90;1.80;;;5.60;99.90;;;;;;4924492;29;20051;-81
2022/01/17 02:13:41;;;;;;;1.85;1.17;;;5.60;99.90;;;;;;4922738;29;20092;-81
2022/01/17 02:16:14;;;;;;;7.05;1.92;;;5.60;99.90;;;;;;4923646;29;20079;-81
2022/01/17 02:18:42;;;;;;;6.95;1.48;;;5.60;99.90;;;;;;4923240;29;20104;-81
2022/01/17 02:23:45;;;;;;;2.03;0.75;;;5.60;99.90;;;;;;4922978;29;20055;-82
2022/01/17 02:26:11;;;;;;;5.13;1.80;;;5.60;99.90;;;;;;4924227;29;20052;-82
2022/01/17 02:28:37;;;;;;;5.70;2.13;;;5.60;99.90;;;;;;4920748;29;20044;-82
2022/01/17 02:31:05;;;;;;;8.60;2.38;;;5.60;99.90;;;;;;4923797;29;20051;-81
2022/01/17 02:33:32;;;;;;;1.45;1.20;;;5.60;99.90;;;;;;4923854;29;20059;-82
2022/01/17 02:35:58;;;;;;;3.03;1.13;;;5.60;99.90;;;;;;4921837;29;20134;-82
2022/01/17 02:38:23;;;;;;;0.47;0.47;;;5.60;99.90;;;;;;4922033;29;20080;-82
2022/01/17 02:40:53;;;;;;;16.90;2.00;;;5.60;99.90;;;;;;4923702;29;20047;-82
2022/01/17 02:43:21;;;;;;;0.88;0.88;;;5.60;99.90;;;;;;4921881;29;20040;-82
2022/01/17 02:48:26;;;;;;;0.73;0.73;;;5.60;99.90;;;;;;4922360;29;20083;-82
2022/01/17 02:50:53;;;;;;;2.83;0.75;;;5.70;99.90;;;;;;4923727;29;20043;-82
2022/01/17 02:53:19;;;;;;;2.83;1.23;;;5.70;99.90;;;;;;4923669;29;20058;-82
2022/01/17 02:55:56;;;;;;;7.28;1.95;;;5.70;99.90;;;;;;4922124;29;21194;-81
2022/01/17 02:58:24;;;;;;;1.27;1.17;;;5.70;99.90;;;;;;4920683;29;20051;-82
2022/01/17 03:00:57;;;;;;;2.08;1.13;;;5.70;99.90;;;;;;4923144;29;20058;-82
2022/01/17 03:03:26;;;;;;;10.93;1.48;;;5.80;99.90;;;;;;4923152;29;20044;-82
2022/01/17 03:05:55;;;;;;;6.70;1.88;;;5.80;99.90;;;;;;4923078;29;20077;-82
2022/01/17 03:08:22;;;;;;;4.97;1.58;;;5.80;99.90;;;;;;4923595;29;20051;-82
2022/01/17 03:10:51;;;;;;;11.30;1.67;;;5.80;99.90;;;;;;4922024;29;20039;-82
2022/01/17 03:13:20;;;;;;;2.63;1.33;;;5.80;99.90;;;;;;4924272;29;20574;-82
2022/01/17 03:15:53;;;;;;;0.60;0.55;;;5.80;99.90;;;;;;4925990;29;20708;-82
2022/01/17 03:18:19;;;;;;;1.95;1.10;;;5.80;99.90;;;;;;4926387;29;20071;-82
2022/01/17 03:20:45;;;;;;;5.82;1.23;;;5.80;99.90;;;;;;4910274;29;20079;-81
2022/01/17 03:23:10;;;;;;;2.10;0.80;;;5.80;99.90;;;;;;4926392;29;20046;-82
2022/01/17 03:25:36;;;;;;;5.47;1.52;;;5.90;99.90;;;;;;4926775;29;20107;-81
2022/01/17 03:28:02;;;;;;;3.13;1.38;;;5.80;99.90;;;;;;4925593;29;20514;-82
2022/01/17 03:30:30;;;;;;;8.70;1.15;;;5.80;99.90;;;;;;4925985;29;20758;-82
2022/01/17 03:32:55;;;;;;;19.30;3.50;;;5.80;99.90;;;;;;4925627;29;20128;-81
2022/01/17 03:35:21;;;;;;;2.55;0.98;;;5.80;99.90;;;;;;4925889;29;20565;-82
2022/01/17 03:37:47;;;;;;;0.52;0.45;;;5.90;99.90;;;;;;4926480;29;20051;-82
2022/01/17 03:40:14;;;;;;;3.05;1.13;;;5.90;99.90;;;;;;4925512;29;20051;-81
2022/01/17 03:42:40;;;;;;;0.57;0.57;;;5.90;99.90;;;;;;4924714;29;20036;-81
2022/01/17 03:45:07;;;;;;;3.95;1.45;;;5.90;99.90;;;;;;4925221;29;20116;-81
2022/01/17 03:47:37;;;;;;;0.70;0.70;;;5.90;99.90;;;;;;4926153;29;20074;-82
2022/01/17 03:50:07;;;;;;;5.15;1.15;;;5.90;99.90;;;;;;4924751;29;20048;-82
2022/01/17 03:52:33;;;;;;;7.57;1.50;;;5.90;99.90;;;;;;4908608;29;20122;-82
2022/01/17 03:54:59;;;;;;;16.17;1.30;;;5.90;99.90;;;;;;4926341;29;20130;-82
2022/01/17 03:57:25;;;;;;;1.73;0.82;;;5.90;99.90;;;;;;4925257;29;20065;-82
2022/01/17 03:59:50;;;;;;;2.97;1.80;;;5.90;99.90;;;;;;4925867;29;20047;-82
2022/01/17 04:02:16;;;;;;;4.53;1.65;;;5.90;99.90;;;;;;4925358;29;20044;-82
2022/01/17 04:04:41;;;;;;;1.15;0.98;;;5.90;99.90;;;;;;4925742;29;20044;-81
2022/01/17 04:07:07;;;;;;;2.58;1.92;;;5.90;99.90;;;;;;4926012;29;20043;-82
2022/01/17 04:09:33;;;;;;;3.03;1.42;;;5.90;99.90;;;;;;4924271;29;20071;-82
2022/01/17 04:11:58;;;;;;;2.47;1.17;;;5.90;99.90;;;;;;4925426;29;20047;-82
2022/01/17 04:14:24;;;;;;;2.58;1.13;;;6.00;99.90;;;;;;4924924;29;20498;-82
2022/01/17 04:16:50;;;;;;;12.43;1.40;;;6.00;99.90;;;;;;4925158;29;20654;-82
2022/01/17 04:19:18;;;;;;;5.00;1.08;;;6.00;99.90;;;;;;4926230;29;20525;-82
2022/01/17 04:21:46;;;;;;;0.73;0.63;;;6.00;99.90;;;;;;4925026;29;20470;-82
2022/01/17 04:24:12;;;;;;;1.77;0.68;;;6.00;99.90;;;;;;4923733;29;20387;-82
2022/01/17 04:26:37;;;;;;;2.55;1.25;;;6.00;99.90;;;;;;4925466;29;20051;-82
2022/01/17 04:29:03;;;;;;;1.88;1.60;;;6.00;99.90;;;;;;4923525;29;20168;-82
2022/01/17 04:31:29;;;;;;;6.32;1.38;;;6.00;99.90;;;;;;4923481;29;20044;-82
2022/01/17 04:33:55;;;;;;;0.68;0.68;;;6.00;99.90;;;;;;4924221;29;20051;-82
2022/01/17 04:36:20;;;;;;;10.93;1.80;;;6.00;99.90;;;;;;4924873;29;20044;-82
2022/01/17 04:38:48;;;;;;;6.40;2.35;;;6.00;99.90;;;;;;4908555;29;20471;-82
2022/01/17 04:41:17;;;;;;;22.95;1.65;;;6.00;99.90;;;;;;4908539;29;20051;-82
2022/01/17 04:43:55;;;;;;;8.52;1.95;;;6.10;99.90;;;;;;4923855;29;20052;-82
2022/01/17 04:46:21;;;;;;;1.17;1.13;;;6.10;99.90;;;;;;4920385;29;20265;-82
2022/01/17 04:48:47;;;;;;;3.75;1.40;;;6.10;99.90;;;;;;4906271;29;20515;-82
2022/01/17 04:51:12;;;;;;;6.35;1.85;;;6.10;99.90;;;;;;4906618;29;20036;-81
2022/01/17 04:53:40;;;;;;;4.20;2.05;;;6.10;99.90;;;;;;4920254;29;20099;-82
2022/01/17 04:56:05;;;;;;;16.55;1.20;;;6.20;99.90;;;;;;4923802;29;20670;-82
2022/01/17 04:58:31;;;;;;;3.13;2.08;;;6.20;99.90;;;;;;4924201;29;20118;-81
2022/01/17 05:00:57;;;;;;;4.18;2.20;;;6.20;99.90;;;;;;4923482;29;20483;-82
2022/01/17 05:03:25;;;;;;;4.55;0.95;;;6.20;99.90;;;;;;4924818;29;20050;-82
2022/01/17 05:05:51;;;;;;;10.48;1.77;;;6.20;99.90;;;;;;4924752;29;20060;-81
2022/01/17 05:08:18;;;;;;;3.28;2.30;;;6.20;99.90;;;;;;4924750;29;20047;-82
2022/01/17 05:10:50;;;;;;;3.22;1.90;;;6.20;99.90;;;;;;4925012;29;20047;-82
2022/01/17 05:13:20;;;;;;;11.15;2.42;;;6.20;99.90;;;;;;4923907;29;20044;-82
2022/01/17 05:15:51;;;;;;;9.88;1.60;;;6.20;99.90;;;;;;4923790;29;20051;-82
2022/01/17 05:20:58;;;;;;;5.00;2.35;;;6.20;99.90;;;;;;4924144;29;20300;-82
2022/01/17 05:23:24;;;;;;;2.70;1.35;;;6.20;99.90;;;;;;4924315;29;20066;-82
2022/01/17 05:25:49;;;;;;;9.80;1.95;;;6.20;99.90;;;;;;4924497;29;20126;-82
2022/01/17 05:28:15;;;;;;;2.38;1.63;;;6.20;99.90;;;;;;4924098;29;20051;-83
2022/01/17 05:30:40;;;;;;;4.63;2.47;;;6.30;99.90;;;;;;4924217;29;20577;-82
2022/01/17 05:33:06;;;;;;;9.07;2.67;;;6.20;99.90;;;;;;4922876;29;20066;-82
2022/01/17 05:35:31;;;;;;;8.70;1.13;;;6.20;99.90;;;;;;4923281;29;20565;-82
2022/01/17 05:37:57;;;;;;;1.10;1.10;;;6.20;99.90;;;;;;4923827;29;20044;-82
2022/01/17 05:40:23;;;;;;;6.43;2.05;;;6.30;99.90;;;;;;4922713;29;20043;-83
2022/01/17 05:42:48;;;;;;;6.20;1.13;;;6.30;99.90;;;;;;4923526;29;20498;-82
2022/01/17 05:45:15;;;;;;;16.35;2.53;;;6.30;99.90;;;;;;4922766;29;20055;-82
2022/01/17 05:47:41;;;;;;;9.52;2.10;;;6.30;99.90;;;;;;4924174;29;20047;-82
2022/01/17 05:50:07;;;;;;;2.88;1.70;;;6.30;99.90;;;;;;4924065;29;20260;-82
2022/01/17 05:52:33;;;;;;;8.50;0.80;;;6.30;99.90;;;;;;4922064;29;20741;-82
2022/01/17 05:55:00;;;;;;;2.72;1.60;;;6.30;99.90;;;;;;4922925;29;20039;-82
2022/01/17 05:57:26;;;;;;;4.53;1.90;;;6.30;99.90;;;;;;4921260;29;20054;-83
2022/01/17 05:59:52;;;;;;;2.78;1.52;;;6.30;99.90;;;;;;4924024;29;20048;-83
2022/01/17 06:02:18;;;;;;;7.53;1.40;;;6.30;99.90;;;;;;4924040;29;20119;-82
2022/01/17 06:04:44;;;;;;;0.63;0.63;;;6.30;99.90;;;;;;4923941;29;20091;-83
2022/01/17 06:07:09;;;;;;;2.05;1.48;;;6.30;99.90;;;;;;4924160;29;20059;-85
2022/01/17 06:09:35;;;;;;;9.73;2.78;;;6.30;99.90;;;;;;4923518;29;20083;-83
2022/01/17 06:12:02;;;;;;;4.07;3.03;;;6.40;99.90;;;;;;4918060;29;20036;-83
2022/01/17 06:14:29;;;;;;;18.60;2.67;;;6.40;99.90;;;;;;4918390;29;20047;-84
2022/01/17 06:16:55;;;;;;;6.38;2.38;;;6.40;99.90;;;;;;4917775;29;20052;-84
2022/01/17 06:19:20;;;;;;;3.80;1.33;;;6.40;99.90;;;;;;4904940;29;20048;-82
2022/01/17 06:21:46;;;;;;;3.55;0.60;;;6.40;99.90;;;;;;4923599;29;20036;-83
2022/01/17 06:24:11;;;;;;;5.00;1.27;;;6.40;99.90;;;;;;4923233;29;21149;-82
2022/01/17 06:26:39;;;;;;;10.45;1.52;;;6.40;99.90;;;;;;4923428;29;20454;-84
2022/01/17 06:29:06;;;;;;;7.25;3.38;;;6.40;99.90;;;;;;4921175;29;20075;-83
2022/01/17 06:31:32;;;;;;;3.35;1.55;;;6.40;99.90;;;;;;4915907;29;20051;-83
2022/01/17 06:33:58;;;;;;;14.85;1.67;;;6.40;99.90;;;;;;4924001;29;20103;-83
2022/01/17 06:36:23;;;;;;;4.13;1.75;;;6.50;99.90;;;;;;4888744;29;20712;-86
2022/01/17 06:38:49;;;;;;;11.95;1.80;;;6.40;99.90;;;;;;4903673;29;20115;-83
2022/01/17 06:41:17;;;;;;;2.65;1.30;;;6.50;99.90;;;;;;4904430;29;20048;-84
2022/01/17 06:43:43;;;;;;;10.40;2.25;;;6.50;99.90;;;;;;4902381;29;20048;-83
2022/01/17 06:46:08;;;;;;;11.50;2.92;;;6.50;99.90;;;;;;4903531;29;20049;-83
2022/01/17 06:48:34;;;;;;;5.35;1.90;;;6.50;99.90;;;;;;4924431;29;20050;-83
2022/01/17 06:50:59;;;;;;;2.42;1.73;;;6.50;99.90;;;;;;4914296;29;20044;-83
2022/01/17 06:53:27;;;;;;;6.38;2.20;;;6.50;99.90;;;;;;4915131;29;20749;-83
2022/01/17 06:55:53;;;;;;;1.85;1.65;;;6.50;99.90;;;;;;4925519;29;20562;-84
2022/01/17 06:58:19;;;;;;;8.50;1.55;;;6.60;99.90;;;;;;4916910;29;20044;-84
2022/01/17 07:00:45;;;;;;;3.75;1.90;;;6.60;99.90;;;;;;4924404;29;20405;-84
2022/01/17 07:03:11;;;;;;;1.75;1.17;;;6.60;99.90;;;;;;4926904;29;20071;-80
2022/01/17 07:05:36;;;;;;;2.10;1.20;;;6.60;99.90;;;;;;4923185;29;20138;-86
2022/01/17 07:08:02;;;;;;;14.25;2.22;;;6.60;99.90;;;;;;4925938;29;20123;-85
2022/01/17 07:10:28;;;;;;;5.07;2.33;;;6.60;99.90;;;;;;4924384;29;20387;-84
2022/01/17 07:12:55;;;;;;;11.30;1.65;;;6.60;99.90;;;;;;4925509;29;20047;-85
2022/01/17 07:15:20;;;;;;;13.85;1.65;;;6.70;99.90;;;;;;4926580;29;20475;-85
2022/01/17 07:17:46;;;;;;;5.63;1.90;;;6.70;99.90;;;;;;4927114;29;20087;-86
2022/01/17 07:20:11;;;;;;;8.98;1.90;;;6.70;99.90;;;;;;4925159;29;20051;-85
2022/01/17 07:22:37;;;;;;;8.73;2.75;;;6.70;99.90;;;;;;4925193;29;20176;-85
2022/01/17 07:25:04;;;;;;;5.22;1.52;;;6.70;99.90;;;;;;4925504;29;20423;-85
2022/01/17 07:27:29;;;;;;;3.90;1.75;;;6.70;99.90;;;;;;4924256;29;20127;-86
2022/01/17 07:29:55;;;;;;;14.13;1.85;;;6.70;99.90;;;;;;4920582;29;20183;-86
2022/01/17 07:32:21;;;;;;;18.73;2.90;;;6.70;99.90;;;;;;4905685;29;20108;-86
2022/01/17 07:34:46;;;;;;;13.98;3.33;;;6.70;99.90;;;;;;4907550;29;20590;-79
2022/01/17 07:37:12;;;;;;;3.63;1.98;;;6.80;99.90;;;;;;4908089;29;20052;-86
2022/01/17 07:39:37;;;;;;;15.77;1.80;;;6.80;99.90;;;;;;4906647;29;20432;-85
2022/01/17 07:42:03;;;;;;;4.53;1.33;;;6.80;99.90;;;;;;4906034;29;20074;-84
2022/01/17 07:44:30;;;;;;;2.22;1.83;;;6.80;99.90;;;;;;4907048;29;20048;-86
2022/01/17 07:46:59;;;;;;;16.25;3.28;;;6.80;99.90;;;;;;4907398;29;20048;-86
2022/01/17 07:49:26;;;;;;;5.18;1.92;;;6.80;99.90;;;;;;4907326;29;20135;-88
2022/01/17 07:51:59;;;;;;;15.38;1.63;;;6.90;99.90;;;;;;4906194;29;20052;-85
2022/01/17 07:54:29;;;;;;;12.35;2.22;;;6.90;99.90;;;;;;4906058;29;20060;-86
2022/01/17 07:56:56;;;;;;;5.35;1.65;;;6.90;99.90;;;;;;4905867;29;20059;-86
2022/01/17 07:59:21;;;;;;;16.30;2.17;;;6.90;99.90;;;;;;4908377;29;20096;-86
2022/01/17 08:01:47;;;;;;;2.67;2.15;;;6.90;99.90;;;;;;4925216;29;20040;-83
2022/01/17 08:04:24;;;;;;;22.25;2.70;;;6.90;99.90;;;;;;4913476;29;20111;-92
2022/01/17 08:06:53;;;;;;;8.73;3.55;;;6.90;99.90;;;;;;4918373;29;20094;-91
2022/01/17 08:09:30;;;;;;;18.48;2.15;;;6.90;99.90;;;;;;4896518;29;20079;-83
2022/01/17 08:11:57;;;;;;;13.90;3.58;;;6.90;99.90;;;;;;4922188;29;20130;-84
2022/01/17 08:14:30;;;;;;;6.35;2.45;;;7.00;99.90;;;;;;4911536;29;20055;-91
2022/01/17 08:16:59;;;;;;;30.05;3.50;;;7.00;99.90;;;;;;4903480;29;20040;-88
2022/01/17 08:19:25;;;;;;;7.78;1.30;;;7.00;99.90;;;;;;4922567;29;20491;-81
2022/01/17 08:21:53;;;;;;;10.23;2.15;;;7.00;99.90;;;;;;4924304;29;20119;-89
2022/01/17 08:24:20;;;;;;;4.50;2.22;;;7.10;99.90;;;;;;4924664;29;20246;-84
2022/01/17 08:26:46;;;;;;;20.35;2.78;;;7.10;99.90;;;;;;4925255;29;20485;-83
2022/01/17 08:29:12;;;;;;;7.80;1.35;;;7.10;99.90;;;;;;4925937;29;20058;-83
2022/01/17 08:31:39;;;;;;;4.43;1.77;;;7.20;99.90;;;;;;4905578;29;20040;-80
2022/01/17 08:34:05;;;;;;;10.02;2.17;;;7.20;99.90;;;;;;4918846;29;20052;-80
2022/01/17 08:36:31;;;;;;;5.18;1.92;;;7.20;99.90;;;;;;4923487;29;20410;-80
2022/01/17 08:38:56;;;;;;;13.50;1.27;;;7.30;99.90;;;;;;4920950;29;20562;-80
2022/01/17 08:41:22;;;;;;;1.83;1.17;;;7.30;99.90;;;;;;4908696;29;20459;-80
2022/01/17 08:43:48;;;;;;;14.70;1.17;;;7.30;99.90;;;;;;4915040;29;20052;-79
2022/01/17 08:46:15;;;;;;;10.23;3.33;;;7.30;99.90;;;;;;4907265;29;20100;-79
2022/01/17 08:48:44;;;;;;;14.20;1.92;;;7.40;99.90;;;;;;4888580;29;20064;-91
2022/01/17 08:51:09;;;;;;;4.13;2.10;;;7.40;99.90;;;;;;4904879;29;20099;-77
2022/01/17 08:53:35;;;;;;;6.32;2.40;;;7.40;99.90;;;;;;4900198;29;20723;-78
2022/01/17 08:56:02;;;;;;;11.88;3.17;;;7.40;99.90;;;;;;4904882;29;20063;-77
2022/01/17 08:58:27;;;;;;;8.73;3.30;;;7.40;99.90;;;;;;4906299;29;20044;-77
2022/01/17 09:00:54;;;;;;;7.00;3.10;;;7.40;99.90;;;;;;4919280;29;20044;-78
2022/01/17 09:03:21;;;;;;;4.10;2.13;;;7.40;99.90;;;;;;4904187;29;20032;-78
2022/01/17 09:05:48;;;;;;;8.57;2.00;;;7.50;99.90;;;;;;4912741;29;20507;-79
2022/01/17 09:08:14;;;;;;;13.43;2.75;;;7.50;99.90;;;;;;4902541;29;20079;-79
2022/01/17 09:10:40;;;;;;;8.32;1.83;;;7.50;99.90;;;;;;4914922;29;20051;-80
2022/01/17 09:13:07;;;;;;;10.45;1.65;;;7.50;99.90;;;;;;4922944;29;20052;-79
2022/01/17 09:15:33;;;;;;;13.07;2.97;;;7.60;99.90;;;;;;4917448;29;20459;-78
2022/01/17 09:17:59;;;;;;;22.30;3.45;;;7.60;99.90;;;;;;4922006;29;20043;-78
2022/01/17 09:20:25;;;;;;;9.75;2.10;;;7.60;99.90;;;;;;4917219;29;20454;-78
2022/01/17 09:22:50;;;;;;;14.27;1.42;;;7.60;99.90;;;;;;4899284;29;20047;-78
2022/01/17 09:25:16;;;;;;;3.22;1.73;;;7.60;99.90;;;;;;4886203;29;20095;-76
2022/01/17 09:27:42;;;;;;;15.52;2.15;;;7.60;99.90;;;;;;4910532;29;20095;-76
2022/01/17 09:30:12;;;;;;;21.55;2.35;;;7.60;99.90;;;;;;4905385;29;20097;-76
2022/01/17 09:32:38;;;;;;;5.55;1.73;;;7.70;99.90;;;;;;4911811;29;20047;-76
2022/01/17 09:35:05;;;;;;;5.10;1.77;;;7.70;99.90;;;;;;4910889;29;20490;-76
2022/01/17 09:37:31;;;;;;;2.13;1.23;;;7.70;99.90;;;;;;4912928;29;20132;-76
2022/01/17 09:39:57;;;;;;;15.23;1.40;;;7.70;99.90;;;;;;4913696;29;20286;-76
2022/01/17 09:42:22;;;;;;;7.88;1.67;;;7.80;99.90;;;;;;4906726;29;20040;-76
2022/01/17 09:44:48;;;;;;;7.85;2.33;;;7.80;99.90;;;;;;4909572;29;20044;-78
2022/01/17 09:47:14;;;;;;;0.98;0.98;;;7.90;99.90;;;;;;4913283;29;20039;-76
2022/01/17 09:55:01;;;;;;;9.90;2.33;;;7.90;99.90;;;;;;4911960;29;20503;-76
2022/01/17 09:57:29;;;;;;;4.78;2.05;;;8.00;99.90;;;;;;4912646;29;20119;-76
2022/01/17 09:59:57;;;;;;;15.80;3.00;;;8.00;99.90;;;;;;4914358;29;20051;-79
2022/01/17 10:02:23;;;;;;;20.48;2.17;;;8.00;99.90;;;;;;4909781;29;20523;-77
2022/01/17 10:04:48;;;;;;;9.73;1.60;;;8.00;99.90;;;;;;4912903;29;20115;-77
2022/01/17 10:07:14;;;;;;;6.15;1.67;;;8.00;99.90;;;;;;4906388;29;20415;-77
2022/01/17 10:09:43;;;;;;;12.15;1.55;;;8.00;99.90;;;;;;4913449;29;20035;-77
2022/01/17 10:12:16;;;;;;;3.95;1.50;;;8.10;99.90;;;;;;4921035;29;20130;-76
2022/01/17 10:14:43;;;;;;;7.10;2.75;;;8.10;99.90;;;;;;4922505;29;20126;-78
2022/01/17 10:17:11;;;;;;;14.25;3.10;;;8.10;99.90;;;;;;4910310;29;20074;-77
2022/01/17 10:19:38;;;;;;;10.18;1.52;;;8.10;99.90;;;;;;4914366;29;20155;-77
2022/01/17 10:22:11;;;;;;;7.43;2.97;;;8.20;99.90;;;;;;4923529;29;20048;-78
2022/01/17 10:24:46;;;;;;;17.38;3.10;;;8.20;99.90;;;;;;4926475;29;20861;-78
2022/01/17 10:27:41;;;;;;;10.02;0.98;;;8.30;99.90;;;;;;4920110;29;20059;-77
2022/01/17 10:30:17;;;;;;;11.65;2.83;;;8.30;99.90;;;;;;4910691;29;20517;-77
2022/01/17 10:35:33;;;;;;;2.08;1.63;;;8.30;99.90;;;;;;4926475;29;20054;-76
2022/01/17 10:38:10;;;;;;;10.15;3.55;;;8.30;99.90;;;;;;4906425;29;20106;-75
2022/01/17 10:40:53;;;;;;;9.02;2.58;;;8.40;99.90;;;;;;4908532;29;20056;-77
2022/01/17 10:43:28;;;;;;;14.15;2.30;;;8.40;99.90;;;;;;4928096;29;20131;-77
2022/01/17 10:45:56;;;;;;;2.05;1.15;;;8.40;99.90;;;;;;4911679;29;20072;-78
2022/01/17 10:48:32;;;;;;;7.25;2.78;;;8.40;99.90;;;;;;4914206;29;20048;-77
2022/01/17 10:50:58;;;;;;;13.05;2.30;;;8.40;99.90;;;;;;4912294;29;20055;-77
2022/01/17 10:53:23;;;;;;;4.10;2.40;;;8.40;99.90;;;;;;4912270;29;20040;-76
2022/01/17 10:55:52;;;;;;;10.80;3.00;;;8.40;99.90;;;;;;4921188;29;20058;-75
2022/01/17 10:58:25;;;;;;;23.35;3.67;;;8.40;99.90;;;;;;4918927;29;20028;-74
2022/01/17 11:00:54;;;;;;;32.67;3.10;;;8.40;99.90;;;;;;4911078;29;20127;-75
2022/01/17 11:03:24;;;;;;;25.27;2.05;;;8.40;99.90;;;;;;4910188;29;20048;-75
2022/01/17 11:05:53;;;;;;;6.85;1.98;;;8.40;99.90;;;;;;4914715;29;20116;-76
2022/01/17 11:08:20;;;;;;;2.22;1.20;;;8.50;99.90;;;;;;4909992;29;20134;-75
2022/01/17 11:10:50;;;;;;;27.50;3.55;;;8.50;99.90;;;;;;4917863;29;20054;-76
2022/01/17 11:13:18;;;;;;;43.08;3.70;;;8.50;99.90;;;;;;4912962;29;20172;-76
2022/01/17 11:15:49;;;;;;;9.75;2.28;;;8.50;99.90;;;;;;4915204;29;20126;-76
2022/01/17 11:18:22;;;;;;;34.83;4.25;;;8.50;99.90;;;;;;4913192;29;20048;-76
2022/01/17 11:20:50;;;;;;;4.72;2.38;;;8.50;99.90;;;;;;4915811;29;20135;-76
2022/01/17 11:23:17;;;;;;;2.25;1.27;;;8.50;99.90;;;;;;4915733;29;20055;-76
2022/01/17 11:25:45;;;;;;;24.02;2.85;;;8.50;99.90;;;;;;4911296;29;20129;-75
2022/01/17 11:28:14;;;;;;;8.73;3.17;;;8.50;99.90;;;;;;4915687;29;20052;-76
2022/01/17 11:30:40;;;;;;;11.70;1.95;;;8.50;99.90;;;;;;4916356;29;20052;-76
2022/01/17 11:33:08;;;;;;;9.80;2.30;;;8.50;99.90;;;;;;4918686;29;20043;-80
2022/01/17 11:35:37;;;;;;;10.25;2.67;;;8.60;99.90;;;;;;4925119;29;20130;-80
2022/01/17 11:38:14;;;;;;;6.22;1.70;;;8.60;99.90;;;;;;4921675;29;20048;-84
2022/01/17 11:40:42;;;;;;;20.27;2.70;;;8.60;99.90;;;;;;4911260;29;20410;-74
2022/01/17 11:43:33;;;;;;;9.23;2.65;;;8.60;99.90;;;;;;4915064;29;20055;-76
2022/01/17 11:46:20;;;;;;;5.25;2.45;;;8.60;99.90;;;;;;4930408;29;20067;-76
2022/01/17 11:49:07;;;;;;;13.35;2.40;;;8.60;99.90;;;;;;4914925;29;20048;-76
2022/01/17 11:51:40;;;;;;;4.47;2.03;;;8.60;99.90;;;;;;4914339;29;20044;-77
2022/01/17 11:54:12;;;;;;;6.60;1.35;;;8.60;99.90;;;;;;4925748;29;20657;-76
2022/01/17 11:56:40;;;;;;;5.50;3.20;;;8.60;99.90;;;;;;4923486;29;20059;-77
2022/01/17 11:59:38;;;;;;;9.02;4.72;;;8.60;99.90;;;;;;4926141;29;20106;-77
2022/01/17 12:02:24;;;;;;;26.00;3.92;;;8.60;99.90;;;;;;4924509;29;20064;-77
2022/01/17 12:05:13;;;;;;;3.92;2.80;;;8.60;99.90;;;;;;4907541;29;20082;-77
2022/01/17 12:07:39;;;;;;;12.93;2.42;;;8.70;99.90;;;;;;4920942;29;20056;-77
2022/01/17 12:10:11;;;;;;;2.63;2.42;;;8.70;99.90;;;;;;4913906;29;20043;-76
2022/01/17 12:12:37;;;;;;;30.40;4.13;;;8.70;99.90;;;;;;4912447;29;20164;-76
2022/01/17 12:15:10;;;;;;;1.75;1.65;;;8.70;99.90;;;;;;4913902;29;20123;-77
2022/01/17 12:17:36;;;;;;;9.60;2.42;;;8.70;99.90;;;;;;4915819;29;20131;-78
2022/01/17 12:20:04;;;;;;;14.65;3.53;;;8.80;99.90;;;;;;4918885;29;20505;-76
2022/01/17 12:22:31;;;;;;;17.90;3.13;;;8.80;99.90;;;;;;4925012;29;20048;-76
2022/01/17 12:24:57;;;;;;;5.43;2.03;;;8.70;99.90;;;;;;4921945;29;20040;-77
2022/01/17 12:27:28;;;;;;;8.27;2.28;;;8.70;99.90;;;;;;4923307;29;20380;-77
2022/01/17 12:30:08;;;;;;;9.10;2.70;;;8.70;99.90;;;;;;4920627;29;20067;-74
2022/01/17 12:32:36;;;;;;;9.43;2.47;;;8.80;99.90;;;;;;4913666;29;20506;-76
2022/01/17 12:35:04;;;;;;;9.68;2.95;;;8.80;99.90;;;;;;4913301;29;20052;-76
2022/01/17 12:37:45;;;;;;;9.07;3.42;;;8.80;99.90;;;;;;4920519;29;20533;-76
2022/01/17 12:40:16;;;;;;;12.52;3.63;;;8.80;99.90;;;;;;4924482;29;20048;-77
2022/01/17 12:43:02;;;;;;;6.57;2.40;;;8.80;99.90;;;;;;4922084;29;20040;-78
2022/01/17 12:45:42;;;;;;;8.75;2.20;;;8.80;99.90;;;;;;4899528;29;21729;-76
2022/01/17 12:48:11;;;;;;;8.05;2.90;;;8.80;99.90;;;;;;4907658;29;20521;-76
2022/01/17 12:50:39;;;;;;;10.93;2.50;;;8.80;99.90;;;;;;4909892;29;20103;-77
2022/01/17 12:53:08;;;;;;;26.85;3.15;;;8.80;99.90;;;;;;4910023;29;20096;-76
2022/01/17 12:55:46;;;;;;;4.97;2.47;;;8.80;99.90;;;;;;4909165;29;20051;-76
2022/01/17 12:58:32;;;;;;;3.72;2.00;;;8.80;99.90;;;;;;4904290;29;20044;-75
2022/01/17 13:01:05;;;;;;;6.43;3.20;;;8.80;99.90;;;;;;4913326;29;20418;-76
2022/01/17 13:03:33;;;;;;;13.98;3.53;;;8.80;99.90;;;;;;4911091;29;20107;-76
2022/01/17 13:06:01;;;;;;;6.53;3.05;;;8.80;99.90;;;;;;4916707;29;20056;-76
2022/01/17 13:08:27;;;;;;;9.02;2.40;;;8.80;99.90;;;;;;4918563;29;20067;-76
2022/01/17 13:10:55;;;;;;;21.50;3.33;;;8.80;99.90;;;;;;4910964;29;20046;-76
2022/01/17 13:13:21;;;;;;;22.92;2.45;;;8.80;99.90;;;;;;4914247;29;20059;-76
2022/01/17 13:16:04;;;;;;;11.07;3.92;;;8.80;99.90;;;;;;4905667;29;20048;-75
2022/01/17 13:18:31;;;;;;;;;;;8.80;99.90;;;;;;4914839;29;20075;-75
2022/01/17 13:20:58;;;;;;;15.10;2.88;;;8.80;99.90;;;;;;4898533;29;19991;-76
2022/01/17 13:23:47;;;;;;;12.95;3.50;;;8.80;99.90;;;;;;4915359;29;20064;-76
2022/01/17 13:26:23;;;;;;;11.30;3.53;;;8.80;99.90;;;;;;4910498;29;20039;-77
2022/01/17 13:28:51;;;;;;;5.55;2.03;;;8.80;99.90;;;;;;4908793;29;20044;-75